sensor_id;sensor_type;location;lat;lon;timestamp;temperature;humidity
26051;DHT22;13825;53.496;10.020;2024-02-15T01:23:25;11.20;1.00
26051;DHT22;13825;53.496;10.020;2024-02-15T01:25:52;11.20;1.00
26051;DHT22;13825;53.496;10.020;2024-02-15T01:28:19;11.20;1.00
26051;DHT22;13825;53.496;10.020;2024-02-15T01:30:53;11.20;1.00
26051;DHT22;13825;53.496;10.020;2024-02-15T01:33:22;11.00;1.00
26051;DHT22;13825;53.496;10.020;2024-02-15T01:35:48;11.20;1.00
26051;DHT22;13825;53.496;10.020;2024-02-15T01:38:27;11.20;1.00
26051;DHT22;13825;53.496;10.020;2024-02-15T01:40:56;11.20;1.00
26051;DHT22;13825;53.496;10.020;2024-02-15T01:43:35;11.20;1.00
26051;DHT22;13825;53.496;10.020;2024-02-15T01:46:15;11.20;1.00
26051;DHT22;13825;53.496;10.020;2024-02-15T01:48:53;11.20;1.00
26051;DHT22;13825;53.496;10.020;2024-02-15T01:51:21;11.20;1.00
26051;DHT22;13825;53.496;10.020;2024-02-15T01:53:52;11.20;1.00
26051;DHT22;13825;53.496;10.020;2024-02-15T01:56:27;11.20;1.00
26051;DHT22;13825;53.496;10.020;2024-02-15T01:58:54;11.10;1.00
26051;DHT22;13825;53.496;10.020;2024-02-15T02:01:21;11.20;1.00
26051;DHT22;13825;53.496;10.020;2024-02-15T02:04:01;11.30;1.00
26051;DHT22;13825;53.496;10.020;2024-02-15T02:06:32;11.30;1.00
26051;DHT22;13825;53.496;10.020;2024-02-15T02:12:05;11.30;1.00
26051;DHT22;13825;53.496;10.020;2024-02-15T02:14:38;11.30;1.00
26051;DHT22;13825;53.496;10.020;2024-02-15T02:17:13;11.30;1.00
26051;DHT22;13825;53.496;10.020;2024-02-15T02:19:43;11.30;1.00
26051;DHT22;13825;53.496;10.020;2024-02-15T02:22:10;11.20;1.00
26051;DHT22;13825;53.496;10.020;2024-02-15T02:27:35;11.30;99.90
26051;DHT22;13825;53.496;10.020;2024-02-15T02:30:11;11.30;99.90
26051;DHT22;13825;53.496;10.020;2024-02-15T02:32:43;11.30;1.00
26051;DHT22;13825;53.496;10.020;2024-02-15T02:35:17;11.30;99.90
26051;DHT22;13825;53.496;10.020;2024-02-15T02:37:46;11.30;1.00
26051;DHT22;13825;53.496;10.020;2024-02-15T02:40:24;11.30;1.00
26051;DHT22;13825;53.496;10.020;2024-02-15T02:42:54;11.30;1.00
26051;DHT22;13825;53.496;10.020;2024-02-15T02:45:32;11.30;1.00
26051;DHT22;13825;53.496;10.020;2024-02-15T02:48:02;11.40;1.00
26051;DHT22;13825;53.496;10.020;2024-02-15T02:50:30;11.40;1.00
26051;DHT22;13825;53.496;10.020;2024-02-15T02:52:59;11.60;1.00
26051;DHT22;13825;53.496;10.020;2024-02-15T02:55:30;11.40;1.00
26051;DHT22;13825;53.496;10.020;2024-02-15T02:58:00;11.40;1.00
26051;DHT22;13825;53.496;10.020;2024-02-15T03:00:27;11.40;1.00
26051;DHT22;13825;53.496;10.020;2024-02-15T03:02:57;11.40;99.90
26051;DHT22;13825;53.496;10.020;2024-02-15T03:05:26;11.40;1.00
26051;DHT22;13825;53.496;10.020;2024-02-15T03:07:55;11.40;1.00
26051;DHT22;13825;53.496;10.020;2024-02-15T03:10:25;11.40;1.00
26051;DHT22;13825;53.496;10.020;2024-02-15T03:12:52;11.30;1.00
26051;DHT22;13825;53.496;10.020;2024-02-15T03:15:21;11.40;1.00
26051;DHT22;13825;53.496;10.020;2024-02-15T03:17:48;11.40;1.00
26051;DHT22;13825;53.496;10.020;2024-02-15T03:20:15;11.40;1.00
26051;DHT22;13825;53.496;10.020;2024-02-15T03:22:50;11.40;1.00
26051;DHT22;13825;53.496;10.020;2024-02-15T03:25:17;11.40;1.00
26051;DHT22;13825;53.496;10.020;2024-02-15T03:27:44;11.40;1.00
26051;DHT22;13825;53.496;10.020;2024-02-15T03:30:11;11.50;1.00
26051;DHT22;13825;53.496;10.020;2024-02-15T03:32:44;11.20;1.00
26051;DHT22;13825;53.496;10.020;2024-02-15T03:35:11;11.30;1.00
26051;DHT22;13825;53.496;10.020;2024-02-15T03:37:42;11.30;1.00
26051;DHT22;13825;53.496;10.020;2024-02-15T03:40:09;11.40;1.00
26051;DHT22;13825;53.496;10.020;2024-02-15T03:42:35;11.40;1.00
26051;DHT22;13825;53.496;10.020;2024-02-15T03:45:04;11.40;1.00
26051;DHT22;13825;53.496;10.020;2024-02-15T03:47:32;11.40;1.00
26051;DHT22;13825;53.496;10.020;2024-02-15T03:50:00;11.40;1.00
26051;DHT22;13825;53.496;10.020;2024-02-15T03:52:28;11.40;1.00
26051;DHT22;13825;53.496;10.020;2024-02-15T03:54:55;11.40;1.00
26051;DHT22;13825;53.496;10.020;2024-02-15T03:57:22;11.40;1.00
26051;DHT22;13825;53.496;10.020;2024-02-15T03:59:49;11.40;1.00
26051;DHT22;13825;53.496;10.020;2024-02-15T04:02:22;11.50;1.00
26051;DHT22;13825;53.496;10.020;2024-02-15T04:04:51;11.40;1.00
26051;DHT22;13825;53.496;10.020;2024-02-15T04:07:21;11.40;1.00
26051;DHT22;13825;53.496;10.020;2024-02-15T04:09:49;11.40;1.00
26051;DHT22;13825;53.496;10.020;2024-02-15T04:12:16;11.50;1.00
26051;DHT22;13825;53.496;10.020;2024-02-15T04:14:43;11.50;1.00
26051;DHT22;13825;53.496;10.020;2024-02-15T04:17:10;11.50;1.00
26051;DHT22;13825;53.496;10.020;2024-02-15T04:19:39;11.50;1.00
26051;DHT22;13825;53.496;10.020;2024-02-15T04:22:06;11.40;1.00
26051;DHT22;13825;53.496;10.020;2024-02-15T04:32:49;11.50;99.90
26051;DHT22;13825;53.496;10.020;2024-02-15T04:35:18;11.50;99.90
26051;DHT22;13825;53.496;10.020;2024-02-15T04:37:47;11.60;1.00
26051;DHT22;13825;53.496;10.020;2024-02-15T04:40:17;11.60;99.90
26051;DHT22;13825;53.496;10.020;2024-02-15T04:42:47;11.80;99.90
26051;DHT22;13825;53.496;10.020;2024-02-15T04:45:28;11.50;99.90
26051;DHT22;13825;53.496;10.020;2024-02-15T04:47:57;11.50;1.00
26051;DHT22;13825;53.496;10.020;2024-02-15T04:50:31;11.60;1.00
26051;DHT22;13825;53.496;10.020;2024-02-15T04:52:57;11.40;1.00
26051;DHT22;13825;53.496;10.020;2024-02-15T04:55:24;11.40;1.00
26051;DHT22;13825;53.496;10.020;2024-02-15T04:57:52;11.50;1.00
26051;DHT22;13825;53.496;10.020;2024-02-15T05:00:22;11.50;1.00
26051;DHT22;13825;53.496;10.020;2024-02-15T05:02:51;11.50;1.00
26051;DHT22;13825;53.496;10.020;2024-02-15T05:05:19;11.40;1.00
26051;DHT22;13825;53.496;10.020;2024-02-15T05:07:47;11.50;1.00
26051;DHT22;13825;53.496;10.020;2024-02-15T05:10:14;11.50;1.00
26051;DHT22;13825;53.496;10.020;2024-02-15T05:12:41;11.60;1.00
26051;DHT22;13825;53.496;10.020;2024-02-15T05:15:08;11.60;1.00
26051;DHT22;13825;53.496;10.020;2024-02-15T05:17:36;11.60;99.90
26051;DHT22;13825;53.496;10.020;2024-02-15T05:20:06;11.60;99.90
26051;DHT22;13825;53.496;10.020;2024-02-15T05:22:38;11.50;99.90
26051;DHT22;13825;53.496;10.020;2024-02-15T05:25:06;11.50;1.00
26051;DHT22;13825;53.496;10.020;2024-02-15T05:27:33;11.60;99.90
26051;DHT22;13825;53.496;10.020;2024-02-15T05:30:02;11.50;99.90
26051;DHT22;13825;53.496;10.020;2024-02-15T05:32:32;11.50;99.90
26051;DHT22;13825;53.496;10.020;2024-02-15T05:35:00;11.50;1.00
26051;DHT22;13825;53.496;10.020;2024-02-15T05:37:31;11.50;1.00
26051;DHT22;13825;53.496;10.020;2024-02-15T05:40:01;11.50;1.00
26051;DHT22;13825;53.496;10.020;2024-02-15T05:42:29;11.50;1.00
26051;DHT22;13825;53.496;10.020;2024-02-15T05:45:15;11.50;1.00
26051;DHT22;13825;53.496;10.020;2024-02-15T05:47:50;11.50;1.00
26051;DHT22;13825;53.496;10.020;2024-02-15T05:50:16;11.40;1.00
26051;DHT22;13825;53.496;10.020;2024-02-15T05:52:46;11.50;1.00
26051;DHT22;13825;53.496;10.020;2024-02-15T05:55:14;11.50;1.00
26051;DHT22;13825;53.496;10.020;2024-02-15T05:57:45;11.50;1.00
26051;DHT22;13825;53.496;10.020;2024-02-15T06:00:12;11.50;1.00
26051;DHT22;13825;53.496;10.020;2024-02-15T06:02:40;11.40;1.00
26051;DHT22;13825;53.496;10.020;2024-02-15T06:05:07;11.40;1.00
26051;DHT22;13825;53.496;10.020;2024-02-15T06:07:35;11.50;1.00
26051;DHT22;13825;53.496;10.020;2024-02-15T06:10:04;11.50;1.00
26051;DHT22;13825;53.496;10.020;2024-02-15T06:12:38;11.50;1.00
26051;DHT22;13825;53.496;10.020;2024-02-15T06:15:05;11.50;1.00
26051;DHT22;13825;53.496;10.020;2024-02-15T06:17:40;11.50;1.00
26051;DHT22;13825;53.496;10.020;2024-02-15T06:20:10;11.40;1.00
26051;DHT22;13825;53.496;10.020;2024-02-15T06:22:39;11.40;1.00
26051;DHT22;13825;53.496;10.020;2024-02-15T06:25:06;11.50;1.00
26051;DHT22;13825;53.496;10.020;2024-02-15T06:27:36;11.50;1.00
26051;DHT22;13825;53.496;10.020;2024-02-15T06:30:33;11.40;1.00
26051;DHT22;13825;53.496;10.020;2024-02-15T06:33:21;11.40;1.00
26051;DHT22;13825;53.496;10.020;2024-02-15T06:36:06;11.40;1.00
26051;DHT22;13825;53.496;10.020;2024-02-15T06:38:50;11.40;1.00
26051;DHT22;13825;53.496;10.020;2024-02-15T06:41:34;11.40;1.00
26051;DHT22;13825;53.496;10.020;2024-02-15T06:44:02;11.40;1.00
26051;DHT22;13825;53.496;10.020;2024-02-15T06:46:30;11.40;1.00
26051;DHT22;13825;53.496;10.020;2024-02-15T06:49:10;11.40;1.00
26051;DHT22;13825;53.496;10.020;2024-02-15T06:51:54;11.40;1.00
26051;DHT22;13825;53.496;10.020;2024-02-15T06:54:37;11.40;1.00
26051;DHT22;13825;53.496;10.020;2024-02-15T06:57:14;11.50;99.90
26051;DHT22;13825;53.496;10.020;2024-02-15T07:00:02;11.50;99.90
26051;DHT22;13825;53.496;10.020;2024-02-15T07:02:31;11.30;1.00
26051;DHT22;13825;53.496;10.020;2024-02-15T07:04:58;11.40;1.00
26051;DHT22;13825;53.496;10.020;2024-02-15T07:07:25;11.50;1.00
26051;DHT22;13825;53.496;10.020;2024-02-15T07:09:52;11.60;1.00
26051;DHT22;13825;53.496;10.020;2024-02-15T07:12:19;11.50;99.90
26051;DHT22;13825;53.496;10.020;2024-02-15T07:14:50;11.50;99.90
26051;DHT22;13825;53.496;10.020;2024-02-15T07:17:17;11.60;99.90
26051;DHT22;13825;53.496;10.020;2024-02-15T07:19:47;11.90;99.90
26051;DHT22;13825;53.496;10.020;2024-02-15T07:22:19;11.60;99.90
26051;DHT22;13825;53.496;10.020;2024-02-15T07:24:47;11.70;99.90
26051;DHT22;13825;53.496;10.020;2024-02-15T07:27:30;11.60;99.90
26051;DHT22;13825;53.496;10.020;2024-02-15T07:30:06;11.60;99.90
26051;DHT22;13825;53.496;10.020;2024-02-15T07:32:34;11.60;99.90
26051;DHT22;13825;53.496;10.020;2024-02-15T07:35:02;11.60;99.90
26051;DHT22;13825;53.496;10.020;2024-02-15T07:37:30;11.70;99.90
26051;DHT22;13825;53.496;10.020;2024-02-15T07:39:58;11.70;99.90
26051;DHT22;13825;53.496;10.020;2024-02-15T07:42:37;11.70;99.90
26051;DHT22;13825;53.496;10.020;2024-02-15T07:45:19;11.90;99.90
26051;DHT22;13825;53.496;10.020;2024-02-15T07:48:11;11.80;66.10
26051;DHT22;13825;53.496;10.020;2024-02-15T07:54:12;11.80;61.90
26051;DHT22;13825;53.496;10.020;2024-02-15T07:56:39;11.80;9.50
26051;DHT22;13825;53.496;10.020;2024-02-15T07:59:06;11.90;39.10
26051;DHT22;13825;53.496;10.020;2024-02-15T08:01:33;11.80;1.00
26051;DHT22;13825;53.496;10.020;2024-02-15T08:04:00;11.90;17.00
26051;DHT22;13825;53.496;10.020;2024-02-15T08:06:27;12.00;1.00
26051;DHT22;13825;53.496;10.020;2024-02-15T08:11:45;12.00;1.00
26051;DHT22;13825;53.496;10.020;2024-02-15T08:14:12;12.00;1.00
26051;DHT22;13825;53.496;10.020;2024-02-15T08:16:41;11.90;1.00
26051;DHT22;13825;53.496;10.020;2024-02-15T08:19:08;12.00;1.00
26051;DHT22;13825;53.496;10.020;2024-02-15T08:21:36;12.00;1.00
26051;DHT22;13825;53.496;10.020;2024-02-15T08:24:06;12.00;1.00
26051;DHT22;13825;53.496;10.020;2024-02-15T08:26:36;12.10;1.00
26051;DHT22;13825;53.496;10.020;2024-02-15T08:29:06;12.10;1.00
26051;DHT22;13825;53.496;10.020;2024-02-15T08:31:33;12.10;1.00
26051;DHT22;13825;53.496;10.020;2024-02-15T08:34:00;12.20;1.00
26051;DHT22;13825;53.496;10.020;2024-02-15T08:36:29;12.30;1.00
26051;DHT22;13825;53.496;10.020;2024-02-15T08:38:55;12.20;1.00
26051;DHT22;13825;53.496;10.020;2024-02-15T08:41:22;12.30;1.00
26051;DHT22;13825;53.496;10.020;2024-02-15T08:43:52;12.30;1.00
26051;DHT22;13825;53.496;10.020;2024-02-15T08:46:23;12.50;1.00
26051;DHT22;13825;53.496;10.020;2024-02-15T08:48:52;12.60;1.00
26051;DHT22;13825;53.496;10.020;2024-02-15T08:51:19;12.50;1.00
26051;DHT22;13825;53.496;10.020;2024-02-15T08:53:46;12.60;1.00
26051;DHT22;13825;53.496;10.020;2024-02-15T10:05:09;12.60;1.00
26051;DHT22;13825;53.496;10.020;2024-02-15T10:07:39;12.50;1.00
26051;DHT22;13825;53.496;10.020;2024-02-15T10:10:14;12.70;1.00
26051;DHT22;13825;53.496;10.020;2024-02-15T10:12:57;12.60;1.00
26051;DHT22;13825;53.496;10.020;2024-02-15T10:15:30;12.60;1.00
26051;DHT22;13825;53.496;10.020;2024-02-15T10:17:57;12.60;1.00
26051;DHT22;13825;53.496;10.020;2024-02-15T10:20:27;12.60;1.00
26051;DHT22;13825;53.496;10.020;2024-02-15T10:25:36;12.50;1.00
26051;DHT22;13825;53.496;10.020;2024-02-15T10:28:04;12.60;1.00
26051;DHT22;13825;53.496;10.020;2024-02-15T10:30:33;12.70;1.00
26051;DHT22;13825;53.496;10.020;2024-02-15T10:33:00;12.80;1.00
26051;DHT22;13825;53.496;10.020;2024-02-15T10:35:29;12.80;1.00
26051;DHT22;13825;53.496;10.020;2024-02-15T10:38:04;12.70;1.00
26051;DHT22;13825;53.496;10.020;2024-02-15T10:40:32;12.70;1.00
26051;DHT22;13825;53.496;10.020;2024-02-15T10:42:58;12.70;1.00
26051;DHT22;13825;53.496;10.020;2024-02-15T10:45:25;12.80;1.00
26051;DHT22;13825;53.496;10.020;2024-02-15T10:47:53;12.90;1.00
26051;DHT22;13825;53.496;10.020;2024-02-15T10:50:24;13.00;1.00
26051;DHT22;13825;53.496;10.020;2024-02-15T10:52:54;12.90;1.00
26051;DHT22;13825;53.496;10.020;2024-02-15T10:55:22;13.00;1.00
26051;DHT22;13825;53.496;10.020;2024-02-15T10:57:51;13.20;1.00
26051;DHT22;13825;53.496;10.020;2024-02-15T11:00:19;13.30;1.00
26051;DHT22;13825;53.496;10.020;2024-02-15T11:02:54;13.10;1.00
26051;DHT22;13825;53.496;10.020;2024-02-15T11:05:27;13.10;1.00
26051;DHT22;13825;53.496;10.020;2024-02-15T11:07:57;13.20;1.00
26051;DHT22;13825;53.496;10.020;2024-02-15T11:10:25;13.30;1.00
26051;DHT22;13825;53.496;10.020;2024-02-15T11:12:52;13.30;1.00
26051;DHT22;13825;53.496;10.020;2024-02-15T11:18:05;13.20;1.00
26051;DHT22;13825;53.496;10.020;2024-02-15T11:20:48;13.10;1.00
26051;DHT22;13825;53.496;10.020;2024-02-15T11:23:26;13.10;1.00
26051;DHT22;13825;53.496;10.020;2024-02-15T11:25:53;13.10;1.00
26051;DHT22;13825;53.496;10.020;2024-02-15T11:28:37;13.10;1.00
26051;DHT22;13825;53.496;10.020;2024-02-15T11:31:14;13.00;1.00
26051;DHT22;13825;53.496;10.020;2024-02-15T11:34:00;13.00;1.00
26051;DHT22;13825;53.496;10.020;2024-02-15T11:36:46;13.00;1.00
26051;DHT22;13825;53.496;10.020;2024-02-15T11:44:36;13.00;1.00
26051;DHT22;13825;53.496;10.020;2024-02-15T11:47:04;13.00;1.00
26051;DHT22;13825;53.496;10.020;2024-02-15T11:49:32;12.80;1.00
26051;DHT22;13825;53.496;10.020;2024-02-15T11:52:08;12.80;1.00
26051;DHT22;13825;53.496;10.020;2024-02-15T11:54:35;12.80;1.00
26051;DHT22;13825;53.496;10.020;2024-02-15T11:57:02;12.80;1.00
26051;DHT22;13825;53.496;10.020;2024-02-15T11:59:44;12.80;1.00
26051;DHT22;13825;53.496;10.020;2024-02-15T12:02:40;12.70;1.00
26051;DHT22;13825;53.496;10.020;2024-02-15T12:05:25;12.80;1.00
26051;DHT22;13825;53.496;10.020;2024-02-15T12:08:10;12.60;1.00
26051;DHT22;13825;53.496;10.020;2024-02-15T12:10:57;12.70;1.00
26051;DHT22;13825;53.496;10.020;2024-02-15T12:13:41;12.70;1.00
26051;DHT22;13825;53.496;10.020;2024-02-15T12:16:25;12.70;1.00
26051;DHT22;13825;53.496;10.020;2024-02-15T12:19:09;12.60;1.00
26051;DHT22;13825;53.496;10.020;2024-02-15T12:21:37;12.70;1.00
26051;DHT22;13825;53.496;10.020;2024-02-15T12:24:06;12.80;1.00
26051;DHT22;13825;53.496;10.020;2024-02-15T12:26:33;12.80;1.00
26051;DHT22;13825;53.496;10.020;2024-02-15T12:29:01;12.80;1.00
26051;DHT22;13825;53.496;10.020;2024-02-15T12:31:27;12.80;1.00
26051;DHT22;13825;53.496;10.020;2024-02-15T12:34:01;12.80;1.00
26051;DHT22;13825;53.496;10.020;2024-02-15T12:36:31;12.80;1.00
26051;DHT22;13825;53.496;10.020;2024-02-15T12:39:01;12.90;1.00
26051;DHT22;13825;53.496;10.020;2024-02-15T12:41:27;12.80;1.00
26051;DHT22;13825;53.496;10.020;2024-02-15T12:43:56;12.80;1.00
26051;DHT22;13825;53.496;10.020;2024-02-15T12:46:23;12.70;1.00
26051;DHT22;13825;53.496;10.020;2024-02-15T12:49:05;12.70;1.00
26051;DHT22;13825;53.496;10.020;2024-02-15T12:51:32;12.60;1.00
26051;DHT22;13825;53.496;10.020;2024-02-15T12:54:09;12.70;1.00
26051;DHT22;13825;53.496;10.020;2024-02-15T12:56:36;12.80;1.00
26051;DHT22;13825;53.496;10.020;2024-02-15T12:59:04;12.80;1.00
26051;DHT22;13825;53.496;10.020;2024-02-15T13:01:32;12.80;1.00
26051;DHT22;13825;53.496;10.020;2024-02-15T13:03:59;12.90;1.00
26051;DHT22;13825;53.496;10.020;2024-02-15T13:06:29;12.90;1.00
26051;DHT22;13825;53.496;10.020;2024-02-15T13:08:55;12.80;1.00
26051;DHT22;13825;53.496;10.020;2024-02-15T13:11:24;12.80;1.00
26051;DHT22;13825;53.496;10.020;2024-02-15T13:13:51;12.80;1.00
26051;DHT22;13825;53.496;10.020;2024-02-15T13:16:20;12.80;1.00
26051;DHT22;13825;53.496;10.020;2024-02-15T13:18:49;12.70;1.00
26051;DHT22;13825;53.496;10.020;2024-02-15T13:21:17;12.70;1.00
26051;DHT22;13825;53.496;10.020;2024-02-15T13:23:44;12.70;1.00
26051;DHT22;13825;53.496;10.020;2024-02-15T13:26:11;12.70;3.50
26051;DHT22;13825;53.496;10.020;2024-02-15T13:28:41;12.70;1.00
26051;DHT22;13825;53.496;10.020;2024-02-15T13:31:09;12.60;1.00
26051;DHT22;13825;53.496;10.020;2024-02-15T13:33:38;12.50;6.40
26051;DHT22;13825;53.496;10.020;2024-02-15T13:36:05;12.60;27.80
26051;DHT22;13825;53.496;10.020;2024-02-15T13:38:36;12.60;65.70
26051;DHT22;13825;53.496;10.020;2024-02-15T13:41:03;12.60;92.00
26051;DHT22;13825;53.496;10.020;2024-02-15T13:43:29;12.60;51.70
26051;DHT22;13825;53.496;10.020;2024-02-15T13:45:59;12.50;99.90
26051;DHT22;13825;53.496;10.020;2024-02-15T13:48:27;12.50;99.90
26051;DHT22;13825;53.496;10.020;2024-02-15T13:50:55;12.50;99.90
26051;DHT22;13825;53.496;10.020;2024-02-15T13:53:22;12.50;99.90
26051;DHT22;13825;53.496;10.020;2024-02-15T13:55:49;12.60;99.90
26051;DHT22;13825;53.496;10.020;2024-02-15T13:58:17;12.60;99.90
26051;DHT22;13825;53.496;10.020;2024-02-15T14:00:44;12.70;99.90
26051;DHT22;13825;53.496;10.020;2024-02-15T14:03:12;12.70;99.90
26051;DHT22;13825;53.496;10.020;2024-02-15T14:05:40;12.80;44.60
26051;DHT22;13825;53.496;10.020;2024-02-15T14:08:07;12.80;1.00
26051;DHT22;13825;53.496;10.020;2024-02-15T14:10:36;12.90;1.00
26051;DHT22;13825;53.496;10.020;2024-02-15T14:13:04;12.90;1.00
26051;DHT22;13825;53.496;10.020;2024-02-15T14:15:33;12.80;1.00
26051;DHT22;13825;53.496;10.020;2024-02-15T14:18:02;12.80;1.00
26051;DHT22;13825;53.496;10.020;2024-02-15T14:20:31;12.70;1.00
26051;DHT22;13825;53.496;10.020;2024-02-15T14:22:58;12.70;1.00
26051;DHT22;13825;53.496;10.020;2024-02-15T14:25:33;12.80;1.00
26051;DHT22;13825;53.496;10.020;2024-02-15T14:28:00;12.70;1.00
26051;DHT22;13825;53.496;10.020;2024-02-15T14:30:31;12.70;1.00
26051;DHT22;13825;53.496;10.020;2024-02-15T14:33:16;12.70;1.00
26051;DHT22;13825;53.496;10.020;2024-02-15T14:35:52;12.60;1.00
26051;DHT22;13825;53.496;10.020;2024-02-15T14:38:21;12.60;1.00
26051;DHT22;13825;53.496;10.020;2024-02-15T14:40:50;12.50;1.00
26051;DHT22;13825;53.496;10.020;2024-02-15T14:46:24;12.40;23.60
26051;DHT22;13825;53.496;10.020;2024-02-15T14:48:53;12.50;76.50
26051;DHT22;13825;53.496;10.020;2024-02-15T14:55:13;12.50;7.90
26051;DHT22;13825;53.496;10.020;2024-02-15T14:57:44;12.60;9.50
26051;DHT22;13825;53.496;10.020;2024-02-15T15:00:16;12.50;1.00
26051;DHT22;13825;53.496;10.020;2024-02-15T15:02:53;12.50;1.00
26051;DHT22;13825;53.496;10.020;2024-02-15T15:05:22;12.40;1.00
26051;DHT22;13825;53.496;10.020;2024-02-15T15:08:14;12.40;39.30
26051;DHT22;13825;53.496;10.020;2024-02-15T15:11:04;12.40;1.00
26051;DHT22;13825;53.496;10.020;2024-02-15T15:13:54;12.40;1.00
26051;DHT22;13825;53.496;10.020;2024-02-15T15:16:28;12.40;1.00
26051;DHT22;13825;53.496;10.020;2024-02-15T15:18:56;12.50;1.00
26051;DHT22;13825;53.496;10.020;2024-02-15T15:21:52;12.40;1.00
26051;DHT22;13825;53.496;10.020;2024-02-15T15:24:39;12.40;1.00
26051;DHT22;13825;53.496;10.020;2024-02-15T15:30:18;12.40;1.00
26051;DHT22;13825;53.496;10.020;2024-02-15T15:33:04;12.30;60.30
26051;DHT22;13825;53.496;10.020;2024-02-15T15:35:53;12.40;63.60
26051;DHT22;13825;53.496;10.020;2024-02-15T15:38:25;12.30;61.70
26051;DHT22;13825;53.496;10.020;2024-02-15T15:41:01;12.20;99.90
26051;DHT22;13825;53.496;10.020;2024-02-15T15:43:30;12.30;25.50
26051;DHT22;13825;53.496;10.020;2024-02-15T15:46:04;12.40;57.10
26051;DHT22;13825;53.496;10.020;2024-02-15T15:48:31;12.30;17.50
26051;DHT22;13825;53.496;10.020;2024-02-15T15:51:00;12.40;11.90
26051;DHT22;13825;53.496;10.020;2024-02-15T15:53:30;12.50;16.40
26051;DHT22;13825;53.496;10.020;2024-02-15T15:55:59;12.40;1.00
26051;DHT22;13825;53.496;10.020;2024-02-15T15:58:26;12.40;1.00
26051;DHT22;13825;53.496;10.020;2024-02-15T16:00:53;12.40;1.00
26051;DHT22;13825;53.496;10.020;2024-02-15T16:03:23;12.40;1.00
26051;DHT22;13825;53.496;10.020;2024-02-15T16:05:50;12.30;1.00
26051;DHT22;13825;53.496;10.020;2024-02-15T16:08:21;12.30;13.60
26051;DHT22;13825;53.496;10.020;2024-02-15T16:10:55;12.30;1.00
26051;DHT22;13825;53.496;10.020;2024-02-15T16:13:30;12.30;47.30
26051;DHT22;13825;53.496;10.020;2024-02-15T16:16:14;12.30;4.50
26051;DHT22;13825;53.496;10.020;2024-02-15T16:18:50;12.20;1.00
26051;DHT22;13825;53.496;10.020;2024-02-15T16:21:19;12.50;1.00
26051;DHT22;13825;53.496;10.020;2024-02-15T16:27:16;12.30;1.00
26051;DHT22;13825;53.496;10.020;2024-02-15T16:33:32;12.10;99.90
26051;DHT22;13825;53.496;10.020;2024-02-15T16:36:10;12.10;99.90
26051;DHT22;13825;53.496;10.020;2024-02-15T16:38:36;12.30;87.70
26051;DHT22;13825;53.496;10.020;2024-02-15T16:41:05;12.30;46.60
26051;DHT22;13825;53.496;10.020;2024-02-15T16:52:43;12.30;1.00
26051;DHT22;13825;53.496;10.020;2024-02-15T16:55:14;12.20;2.10
26051;DHT22;13825;53.496;10.020;2024-02-15T16:57:42;12.60;1.00
26051;DHT22;13825;53.496;10.020;2024-02-15T17:00:10;12.40;1.00
26051;DHT22;13825;53.496;10.020;2024-02-15T17:02:51;12.40;1.00
26051;DHT22;13825;53.496;10.020;2024-02-15T17:05:19;12.50;1.00
26051;DHT22;13825;53.496;10.020;2024-02-15T17:07:48;12.40;1.00
26051;DHT22;13825;53.496;10.020;2024-02-15T17:10:15;12.30;1.00
26051;DHT22;13825;53.496;10.020;2024-02-15T17:12:50;12.30;1.00
26051;DHT22;13825;53.496;10.020;2024-02-15T17:15:19;12.40;1.00
26051;DHT22;13825;53.496;10.020;2024-02-15T17:17:51;12.10;7.60
26051;DHT22;13825;53.496;10.020;2024-02-15T17:20:18;12.30;20.70
26051;DHT22;13825;53.496;10.020;2024-02-15T17:22:49;12.30;19.40
26051;DHT22;13825;53.496;10.020;2024-02-15T17:25:17;12.40;1.00
26051;DHT22;13825;53.496;10.020;2024-02-15T17:27:44;12.00;23.00
26051;DHT22;13825;53.496;10.020;2024-02-15T17:30:11;12.30;35.00
26051;DHT22;13825;53.496;10.020;2024-02-15T17:32:39;12.20;29.60
26051;DHT22;13825;53.496;10.020;2024-02-15T17:35:07;12.20;43.50
26051;DHT22;13825;53.496;10.020;2024-02-15T17:37:37;12.30;47.00
26051;DHT22;13825;53.496;10.020;2024-02-15T17:40:07;12.30;40.50
26051;DHT22;13825;53.496;10.020;2024-02-15T17:42:38;12.30;14.60
26051;DHT22;13825;53.496;10.020;2024-02-15T17:45:12;12.30;9.20
26051;DHT22;13825;53.496;10.020;2024-02-15T17:47:54;12.30;1.00
26051;DHT22;13825;53.496;10.020;2024-02-15T17:50:21;12.20;1.00
26051;DHT22;13825;53.496;10.020;2024-02-15T17:52:54;12.30;6.50
26051;DHT22;13825;53.496;10.020;2024-02-15T17:55:24;12.30;12.30
26051;DHT22;13825;53.496;10.020;2024-02-15T17:57:51;12.30;64.50
26051;DHT22;13825;53.496;10.020;2024-02-15T18:00:18;12.20;51.20
26051;DHT22;13825;53.496;10.020;2024-02-15T18:02:48;12.20;65.10
26051;DHT22;13825;53.496;10.020;2024-02-15T18:05:24;12.20;55.60
26051;DHT22;13825;53.496;10.020;2024-02-15T18:08:07;12.20;54.30
26051;DHT22;13825;53.496;10.020;2024-02-15T18:10:41;12.20;99.90
26051;DHT22;13825;53.496;10.020;2024-02-15T18:13:23;12.20;99.90
26051;DHT22;13825;53.496;10.020;2024-02-15T18:15:50;12.20;99.90
26051;DHT22;13825;53.496;10.020;2024-02-15T18:18:20;12.10;93.80
26051;DHT22;13825;53.496;10.020;2024-02-15T18:20:48;12.10;75.90
26051;DHT22;13825;53.496;10.020;2024-02-15T18:23:16;12.10;74.80
26051;DHT22;13825;53.496;10.020;2024-02-15T18:25:47;12.10;99.90
26051;DHT22;13825;53.496;10.020;2024-02-15T18:28:15;12.10;99.90
26051;DHT22;13825;53.496;10.020;2024-02-15T18:30:42;12.10;99.90
26051;DHT22;13825;53.496;10.020;2024-02-15T18:33:13;12.20;99.90
26051;DHT22;13825;53.496;10.020;2024-02-15T18:41:08;12.10;99.90
26051;DHT22;13825;53.496;10.020;2024-02-15T18:43:36;12.10;99.90
26051;DHT22;13825;53.496;10.020;2024-02-15T18:46:03;12.10;98.10
26051;DHT22;13825;53.496;10.020;2024-02-15T18:48:30;12.20;85.80
26051;DHT22;13825;53.496;10.020;2024-02-15T18:50:57;12.20;74.00
26051;DHT22;13825;53.496;10.020;2024-02-15T18:53:38;12.20;78.80
26051;DHT22;13825;53.496;10.020;2024-02-15T21:40:03;11.80;28.40
26051;DHT22;13825;53.496;10.020;2024-02-15T21:42:32;11.80;41.00
26051;DHT22;13825;53.496;10.020;2024-02-15T21:45:08;11.70;74.30
26051;DHT22;13825;53.496;10.020;2024-02-15T21:47:37;11.70;77.60
26051;DHT22;13825;53.496;10.020;2024-02-15T21:50:10;11.80;54.10
26051;DHT22;13825;53.496;10.020;2024-02-15T21:52:38;11.70;57.00
26051;DHT22;13825;53.496;10.020;2024-02-15T21:55:19;11.70;50.90
26051;DHT22;13825;53.496;10.020;2024-02-15T21:57:46;11.80;98.70
26051;DHT22;13825;53.496;10.020;2024-02-15T22:00:13;11.80;41.80
26051;DHT22;13825;53.496;10.020;2024-02-15T22:03:01;12.10;1.00
26051;DHT22;13825;53.496;10.020;2024-02-15T22:05:40;11.80;27.80
26051;DHT22;13825;53.496;10.020;2024-02-15T22:08:11;11.90;23.70
26051;DHT22;13825;53.496;10.020;2024-02-15T22:10:58;11.80;1.00